AGROMETEOROLOŠKI PORTAL
Vinorodna pokrajina

Temelj dobrega kmetovanja.

Izpis lokacij s podatki meritev in opazovanj za vse lokacije

Zahodna Slovenija
Lokacija Nadmorska višina Lega Višina meritve senzorja Datum in čas meritve Dosežena min. temperatura RH Veter (m/s) Temp. rosišča Temp. mokrega termometra
Bilje UVHVVR 55 m 2 m 21.4.2024 21:00 6,3 90,6 0,3 4,9 5,6
Bilje UVHVVR 55 m 50 cm 21.4.2024 21:00 6,3 90,6 0,3 4,9 5,6
Čelje 496 m V 2 m 21.4.2024 21:00 5,8 59,0 0,1 -1,6 2,7
Dragonja 34 m S 2 m 21.4.2024 21:00 7,1 87,0 0,4 5,1 6,1
Dutovlje 316 m J 2 m 21.4.2024 21:00 5,9 78,9 0,1 2,5 4,3
Komen 269 m J 2 m 21.4.2024 21:00 6,1 94,1 0,2 5,2 5,7
Kozana 182 m S 2 m 21.4.2024 21:00 6,3 90,3 1,0 4,8 5,6
Miren. 47 m S 2 m 21.4.2024 21:00 6,0 83,7 0,3 3,5 4,8
Potoče 75 m 2 m 21.4.2024 21:00 6,6 86,4 0,1 4,5 5,6
Pradisiol 3 m S 2 m 21.4.2024 21:00 7,2 88,0 0,3 5,4 6,3
Puče 275 m J 2 m 21.4.2024 21:00 7,4 78,5 0,4 3,9 5,7
Purisima 50 m J 2 m 21.4.2024 21:00 6,4 91,2 0,5 5,1 5,8
Slap 112 m 2 m 21.4.2024 21:00 3,8 59,9 0,4 -3,2 0,9
Sužid 231 m 2 m 21.4.2024 21:00 1,4 92,7 0,7 0,4 0,9
Šlovrenc 92 m JZ 2 m 21.4.2024 21:00 6,6 89,0 0,9 4,9 5,8
Truške 230 m 2 m 21.4.2024 21:00 7,3 76,9 0,3 3,5 5,5
Vipolže 59 m 2 m 21.4.2024 21:00 6,6 89,0 0,9 4,9 5,8
Višnjevik 223 m V 2 m 21.4.2024 21:00 5,6 92,4 0,7 4,5 5,1
Vogrsko 62 m 2 m 21.4.2024 21:00 2,1 86,0 0,8 0,0 1,2
Zavrhek 340 m J 2 m 21.4.2024 21:00 5,5 69,3 0,3 0,4 3,2
Ajdovščina 83 m 2 m 21.4.2024 21:00 5,5 73,3 0,2 1,1 3,5
BILJE ARSO 55 m 2 m 21.4.2024 21:00 6,3 90,6 0,3 4,9 5,6
BILJE ARSO 55 m 5 cm 21.4.2024 21:00 6,3 90,6 0,3 4,9 5,6
Bovec - letališče ARSO 438 m 2 m 21.4.2024 21:00 0,1 94,1 0,3 -0,7 -0,3
GODNJE ARSO 315 m 2 m 21.4.2024 21:00 5,9 78,9 0,1 2,5 4,3
Ilirska Bistrica - Koseze ARSO 415 m 2 m 21.4.2024 21:00 4,8 55,4 0,3 -3,3 1,5
KOPER - KAPITANIJA ARSO 0 m 2 m 21.4.2024 21:00 7,2 88,0 0,3 5,4 6,3
KUBED ARSO 236 m 2 m 21.4.2024 21:00 6,8 78,6 0,3 3,4 5,2
NOVA GORICA ARSO 111 m 2 m 21.4.2024 21:00 4,4 84,5 0,7 2,0 3,3
OTLICA - EKOLOSKA ARSO 947 m 2 m 21.4.2024 21:00 4,1 71,8 0,6 -0,5 2,1
PODNANOS - ARSO 153 m 2 m 21.4.2024 21:00 4,3 65,9 0,3 -1,5 1,8
Portorož-letališče ARSO 0 m 2 m 21.4.2024 21:00 7,7 84,7 0,6 5,3 6,5
POSTOJNA ARSO 534 m 2 m 21.4.2024 21:00 5,2 51,1 0,7 -4,1 1,5
POSTOJNA ARSO 534 m 5 cm 21.4.2024 21:00 5,2 51,1 0,7 -4,1 1,5
ŠKOCJAN ARSO 420 m 2 m 21.4.2024 21:00 5,0 68,8 0,3 -0,2 2,7
VEDRIJAN ARSO 228 m 2 m 21.4.2024 21:00 5,1 93,0 0,7 4,1 4,6
ZADLOG - ARSO 716 m 2 m 21.4.2024 21:00 5,5 62,2 0,3 -1,1 2,6
Beneša - Ankaran (ZRSKP) 62 m 2 m 21.4.2024 21:00 7,2 90,0 0,5 5,7 6,5
Mala Seva - Izola (ZRSKP) 90 m 2 m 21.4.2024 21:00 7,7 81,5 0,6 4,7 6,3
Marezeige - Koper (ZRS) 189 m J 2 m 21.4.2024 21:00 7,3 76,9 0,3 3,5 5,5
Semedela - Markovec (ZRSKP) 149 m 2 m 21.4.2024 21:00 7,6 85,7 0,4 5,4 6,5
Kapelski vrh DRSI 285 m 2 m 21.4.2024 21:00 6,7 45,0 1,1 -4,4 2,4
Kobarid DRSI 242 m 2 m 21.4.2024 21:00 1,4 92,7 0,7 0,4 0,9
Koper DRSI 5 m 2 m 21.4.2024 21:00 7,2 88,0 0,3 5,4 6,3
Lazaret DRSI 2 m 2 m 21.4.2024 21:00 7,2 90,0 0,5 5,7 6,5
Valeta DRSI 100 m 2 m 21.4.2024 21:00 7,7 81,5 0,6 4,7 6,3
Cerovo 157 m 2 m 21.4.2024 21:00 6,3 90,3 1,0 4,8 5,6
Hruševlje 105 m 2 m 21.4.2024 21:00 5,6 92,4 0,7 4,5 5,1
Plešivo 109 m 2 m 21.4.2024 21:00 6,6 89,0 0,9 4,9 5,8
Osrednja Slovenija
Lokacija Nadmorska višina Lega Višina meritve senzorja Datum in čas meritve Dosežena min. temperatura RH Veter (m/s) Temp. rosišča Temp. mokrega termometra
Borovnica 288 m 2 m 21.4.2024 21:00 6,3 53,4 0,4 -2,4 2,7
Brdo pri Lukovici 368 m J 2 m 21.4.2024 21:00 5,1 56,8 0,4 -2,7 1,9
Češnjevek (Cerklje) 405 m S 2 m 21.4.2024 21:00 4,1 71,0 0,7 -0,7 2,1
Gabrska Gora 487 m 2 m 21.4.2024 21:00 6,8 51,9 0,8 -2,4 3,0
Jablje 302 m S 2 m 21.4.2024 21:00 7,3 77,8 0,1 3,7 5,6
Jablje 302 m S 20 cm 21.4.2024 21:00 7,3 77,8 0,1 3,7 5,6
Kamnik 377 m JV 2 m 21.4.2024 21:00 5,1 65,9 0,6 -0,7 2,6
Kovor 514 m 20 cm 21.4.2024 21:00 2,9 73,8 0,3 -1,3 1,1
Kovor 514 m 2 m 21.4.2024 21:00 2,9 73,8 0,3 -1,3 1,1
Ljubljana KIS 297 m S 2 m 21.4.2024 21:00 7,0 72,6 0,2 2,4 4,9
Podbrezje 456 m JV 2 m 21.4.2024 21:00 6,0 77,9 0,1 2,5 4,4
Polževo 612 m 2 m 21.4.2024 21:00 5,5 76,4 0,3 1,7 3,8
Resje 503 m 2 m 21.4.2024 21:00 6,0 68,8 0,1 0,7 3,6
Šentjakob 279 m 2 m 21.4.2024 21:00 6,6 71,3 0,3 1,8 4,4
Šentjakob 279 m 20 cm 21.4.2024 21:00 6,6 71,3 0,3 1,8 4,4
Vnajnarje 667 m S 2 m 21.4.2024 21:00 5,2 70,3 0,3 0,3 3,0
Žabnica (Dorfarje) 372 m 2 m 21.4.2024 21:00 7,6 58,0 0,4 -0,1 4,2
BOHINJSKA ČEŠNJICA - ARSO 596 m 2 m 21.4.2024 21:00 2,9 73,0 0,2 -1,4 1,1
BORŠT PRI GORENJI VASI ARSO 532 m 2 m 21.4.2024 21:00 5,2 58,7 0,4 -2,2 2,1
BRNIK - LETALIŠČE - ARSO 364 m 2 m 21.4.2024 21:00 6,6 64,5 0,5 0,4 3,9
Lesce 515 m 2 m 21.4.2024 21:00 3,2 76,8 0,2 -0,5 1,6
LITIJA ARSO 263 m 2 m 21.4.2024 21:00 6,3 78,4 0,1 2,8 4,7
Ljubljana - Bežigrad ARSO 299 m 2 m 21.4.2024 21:00 7,0 72,6 0,2 2,4 4,9
LOGATEC - ARSO 486 m 2 m 21.4.2024 21:00 6,4 51,1 0,3 -2,9 2,6
NOVA VAS - BLOKE - ARSO 718 m 2 m 21.4.2024 21:00 4,4 55,3 0,4 -3,7 1,2
VRHNIKA ARSO 367 m 2 m 21.4.2024 21:00 7,5 55,1 0,4 -0,9 3,9
Jeprca DRSI 360 m 2 m 21.4.2024 21:00 7,6 58,0 0,4 -0,1 4,2
Kranj - Delavski most DRSI 380 m 2 m 21.4.2024 21:00 6,9 66,5 0,3 1,1 4,3
Krtina 1 DRSI 308 m 2 m 21.4.2024 21:00 6,2 69,7 0,3 1,1 3,9
Moste pri Komendi DRSI 331 m 2 m 21.4.2024 21:00 6,7 74,7 0,3 2,5 4,8
Podvin DRSI 489 m 2 m 21.4.2024 21:00 6,0 68,8 0,1 0,7 3,6
Vir pri Domžalah DRSI 308 m 2 m 21.4.2024 21:00 6,3 76,6 0,2 2,5 4,6
Vrhnika AC priključek DRSI 293 m 2 m 21.4.2024 21:00 7,8 52,8 0,4 -1,2 3,9
Celjska in Koroška regija
Lokacija Nadmorska višina Lega Višina meritve senzorja Datum in čas meritve Dosežena min. temperatura RH Veter (m/s) Temp. rosišča Temp. mokrega termometra
Bistrica ob Sotli 324 m J 2 m 21.4.2024 21:00 6,9 50,8 0,6 -2,6 3,0
Braslovče (Pšaker) 322 m JV 2 m 21.4.2024 21:00 6,1 70,7 0,3 1,2 3,9
Braslovče (Pšaker) 322 m JV 50 cm 21.4.2024 21:00 6,1 70,7 0,3 1,2 3,9
Črnova (Gradišnik) 453 m JZ 2 m 21.4.2024 21:00 4,9 61,3 0,4 -1,9 2,1
Gabernik-Rogaška 379 m JZ 2 m 21.4.2024 21:00 6,0 48,0 0,7 -4,1 2,0
Kasaze (Mirosan) 279 m S 2 m 21.4.2024 21:00 6,4 79,3 0,1 3,1 4,9
Latkova vas 279 m S 2 m 21.4.2024 21:00 6,0 76,4 0,3 2,2 4,3
Ojstriška vas 308 m Z 2 m 21.4.2024 21:00 5,9 73,0 0,4 1,5 3,9
Radlje ob Dravi 352 m 2 m 21.4.2024 21:00 5,5 48,6 0,4 -4,4 1,6
Slom 279 m S 2 m 21.4.2024 21:00 7,1 48,8 0,6 -2,9 3,0
Slovenske Konjice 377 m 2 m 21.4.2024 21:00 7,4 48,3 0,5 -2,8 3,2
Škofja vas 246 m 2 m 21.4.2024 21:00 6,5 63,8 0,7 0,2 3,7
Virštanj 368 m S 2 m 21.4.2024 21:00 7,1 48,7 0,5 -2,9 3,0
Žalec (PDC) 254 m S 2 m 21.4.2024 21:00 6,3 69,7 0,3 1,2 4,0
Celje - Medlog ARSO 241 m S 2 m 21.4.2024 21:00 6,6 69,3 0,4 1,4 4,3
HRASTNIK ARSO 284 m 2 m 21.4.2024 21:00 5,9 65,7 0,3 0,0 3,3
PODČETRTEK - ATOMSKE TOPLICE ARSO 201 m 2 m 21.4.2024 21:00 7,0 47,6 0,7 -3,3 2,8
RAVNE NA KOROŠKEM - ARSO 394 m 2 m 21.4.2024 21:00 4,8 63,1 0,3 -1,6 2,1
ROGAŠKA SLATINA ARSO 289 m 2 m 21.4.2024 21:00 6,5 47,4 0,7 -3,9 2,4
SLOVENSKE KONJICE ARSO 315 m 2 m 21.4.2024 21:00 7,4 48,3 0,5 -2,8 3,2
ŠMARTNO PRI SLOVENJ GRADCU ARSO 442 m 2 m 21.4.2024 21:00 2,9 59,8 0,3 -4,1 0,1
ŠMARTNO PRI SLOVENJ GRADCU ARSO 442 m 5 cm 21.4.2024 21:00 2,9 59,8 0,3 -4,1 0,1
VELENJE - TEŠ ARSO 388 m 2 m 21.4.2024 21:00 3,9 73,4 0,3 -0,4 2,0
Črnova DRSI 304 m 2 m 21.4.2024 21:00 6,1 58,0 0,5 -1,5 2,9
Podplat DRSI 230 m 2 m 21.4.2024 21:00 6,0 48,0 0,7 -4,1 2,0
Radlje DRSI 355 m 2 m 21.4.2024 21:00 5,5 48,6 0,4 -4,4 1,6
Rimske Toplice DRSI 210 m 2 m 21.4.2024 21:00 6,2 49,7 0,4 -3,5 2,3
Šentrupert DRSI 280 m 2 m 21.4.2024 21:00 6,0 76,4 0,3 2,2 4,3
Jugovzhodna Slovenija
Lokacija Nadmorska višina Lega Višina meritve senzorja Datum in čas meritve Dosežena min. temperatura RH Veter (m/s) Temp. rosišča Temp. mokrega termometra
Artiče 201 m J 2 m 21.4.2024 21:00 7,2 49,5 0,7 -2,6 3,2
Bizeljsko 347 m J 2 m 21.4.2024 21:00 6,9 53,0 0,6 -2,0 3,2
Blanca 278 m JZ 2 m 21.4.2024 21:00 6,5 50,9 0,5 -2,9 2,7
Blanca 278 m JZ 50 cm 21.4.2024 21:00 6,5 50,9 0,5 -2,9 2,7
Črnomelj 253 m JZ 2 m 21.4.2024 21:00 8,1 48,0 0,3 -2,2 3,8
Drašiči 244 m J 2 m 21.4.2024 21:00 7,0 44,7 0,4 -4,2 2,6
Kostanjevica na Krki 165 m 2 m 21.4.2024 10:00 5,9 63,8 0,8 -0,4 3,2
Mali Podlog (Krško) 158 m 2 m 21.4.2024 21:00 7,4 48,0 0,8 -2,9 3,2
Mirna peč - začasna 258 m 2 m 21.4.2024 21:00 7,5 46,8 0,5 -3,1 3,2
Otočec 198 m J 2 m 21.4.2024 21:00 7,8 43,9 0,6 -3,7 3,2
Rodine pri Trebnjem APS 284 m J 2 m 21.4.2024 21:00 7,2 46,5 0,8 -3,5 2,9
Sremič 466 m JZ 2 m 21.4.2024 21:00 6,1 52,5 0,6 -2,9 2,5
Šentjernej APS 231 m JV 2 m 21.4.2024 10:00 6,5 62,4 0,8 -0,1 3,6
Šentjernej APS 231 m JV 50 cm 21.4.2024 10:00 6,5 62,4 0,8 -0,1 3,6
CERKLJE - LETALIŠČE ARSO 155 m 2 m 21.4.2024 21:00 7,5 46,4 0,8 -3,2 3,2
ČRNOMELJ - DOBLIČE ARSO 155 m 2 m 21.4.2024 21:00 8,1 48,0 0,3 -2,2 3,8
HOČKO POHORJE - ARSO 585 m 2 m 21.4.2024 21:00 7,2 46,5 0,6 -3,5 2,9
KRŠKO - NEK ARSO 155 m 2 m 21.4.2024 21:00 6,8 49,4 0,7 -3,0 2,8
MALKOVEC ARSO 397 m 2 m 21.4.2024 21:00 7,4 46,5 0,6 -3,3 3,1
METLIKA ARSO 166 m 2 m 21.4.2024 21:00 7,0 46,9 0,5 -3,5 2,8
NOVO MESTO ARSO 220 m 2 m 21.4.2024 21:00 6,9 55,5 0,3 -1,4 3,4
NOVO MESTO ARSO 220 m 5 cm 21.4.2024 21:00 6,9 55,5 0,3 -1,4 3,4
TREBNJE ARSO 303 m 2 m 21.4.2024 21:00 7,2 47,6 0,6 -3,2 3,0
Elbl-2 DRSI 314 m 2 m 21.4.2024 21:00 6,8 46,6 0,6 -3,8 2,6
Krško DRSI 167 m 2 m 21.4.2024 21:00 6,8 49,4 0,7 -3,0 2,8
Trebnje DRSI 270 m 2 m 21.4.2024 21:00 7,2 46,5 0,8 -3,5 2,9
Severovzhodna Slovenija
Lokacija Nadmorska višina Lega Višina meritve senzorja Datum in čas meritve Dosežena min. temperatura RH Veter (m/s) Temp. rosišča Temp. mokrega termometra
Dravinjski vrh 304 m Z 2 m 21.4.2024 21:00 6,8 51,9 0,5 -2,4 3,0
Godemarci 212 m JV 50 cm 21.4.2024 21:00 6,1 49,2 1,1 -3,7 2,2
Godemarci 212 m JV 2 m 21.4.2024 21:00 6,1 49,2 1,1 -3,7 2,2
Litmerk - bionomija in RLP 314 m JZ 2 m 21.4.2024 21:00 6,0 50,8 1,2 -3,4 2,3
Maribor - BTŠ 276 m J 2 m 21.4.2024 21:00 6,6 48,3 0,6 -3,5 2,6
Meranovo 501 m JV 2 m 21.4.2024 21:00 5,9 53,7 0,4 -2,7 2,4
Moškanjci 213 m 2 m 21.4.2024 21:00 6,3 52,9 0,8 -2,6 2,7
Pohorski dvor 313 m V 2 m 21.4.2024 21:00 7,2 46,5 0,6 -3,5 2,9
Ritoznoj 402 m JV 2 m 21.4.2024 21:00 7,6 46,3 0,6 -3,2 3,2
Savci 245 m JZ 2 m 21.4.2024 21:00 6,1 52,2 1,1 -2,9 2,5
Selnica ob Dravi 311 m SV 2 m 21.4.2024 21:00 4,9 53,3 0,4 -3,8 1,4
Selo 299 m J 2 m 21.4.2024 21:00 6,8 53,4 0,9 -2,0 3,2
Stročja vas 240 m SV 2 m 21.4.2024 21:00 6,1 52,3 1,0 -2,9 2,5
Špičnik 338 m 2 m 21.4.2024 21:00 5,5 63,6 0,3 -0,8 2,8
Vidonci 337 m JV 2 m 21.4.2024 21:00 5,8 53,1 1,1 -3,0 2,3
Vitomarci 299 m SV 2 m 21.4.2024 21:00 6,3 48,0 1,0 -3,9 2,3
Zbigovci - RLP 299 m Z 2 m 21.4.2024 21:00 6,6 45,7 1,1 -4,2 2,4
Zimica 296 m Z 2 m 21.4.2024 21:00 6,5 48,0 0,6 -3,7 2,4
GAČNIK ARSO 291 m 2 m 21.4.2024 21:00 6,3 48,7 0,6 -3,7 2,3
JERUZALEM - ARSO 335 m 2 m 21.4.2024 21:00 6,0 51,5 1,2 -3,2 2,3
LENDAVA - TERME ARSO 161 m 2 m 21.4.2024 21:00 6,9 49,5 1,0 -2,9 2,9
MARIBOR - LETALIŠČE ARSO 264 m 2 m 21.4.2024 21:00 7,1 46,8 0,7 -3,5 2,8
MARIBOR - VRBANSKI PLATO ARSO 274 m 2 m 21.4.2024 21:00 6,6 48,3 0,6 -3,5 2,6
MARINČA VAS - ARSO 272 m 2 m 21.4.2024 21:00 6,0 64,9 0,4 -0,1 3,4
MURSKA SOBOTA - RAKIČAN ARSO 184 m 2 m 21.4.2024 21:00 6,9 48,6 1,3 -3,2 2,9
MURSKA SOBOTA - RAKIČAN ARSO 184 m 5 cm 21.4.2024 21:00 6,9 48,6 1,3 -3,2 2,9
PTUJ - ARSO 222 m 2 m 21.4.2024 21:00 6,3 53,5 0,5 -2,4 2,7
SOTINSKI BREG ARSO 415 m 2 m 21.4.2024 21:00 6,0 50,7 1,0 -3,4 2,2
Dragatuš DRSI 160 m 2 m 21.4.2024 21:00 7,8 47,3 0,3 -2,7 3,5
Gederovci DRSI 201 m 2 m 21.4.2024 21:00 6,8 46,9 1,4 -3,7 2,6
Mačkovci DRSI 271 m 2 m 21.4.2024 21:00 5,9 53,8 1,4 -2,7 2,4
Prosenjakovci DRSI 274 m 2 m 21.4.2024 21:00 6,8 53,4 0,9 -2,0 3,2
Šentilj DRSI 300 m 2 m 21.4.2024 21:00 6,6 48,5 0,4 -3,5 2,6
Postaje, katerih podatke prikazujemo na portalu, so postaje proizvajalca Adcon Telemetry in Pessl (UVHVVR/MKGP), postaje ARSO in postaje DRSI.

IZJAVA O OMEJITVI ODGOVORNOSTI: Uprava Republike Slovenije za varno hrano, veterinarstvo in varstvo rastlin (Uprava) skupaj z Opazovalno napovedovalno službo zdravstvenega varstva rastlin skrbi za nemoteno delovanje in vzdrževanje meteoroloških podatkov iz mreže agrometeoroloških postaj (Adcon Telemety). Agrometeorološki podatki, ki so objavljeni na tej strani, so zgolj informativne narave. Za morebitne vsebinske napake, do katerih lahko pride zaradi tehničnih težav pri vzdrževanju mreže, napak merilne opreme ali drugih nepredvidljivih vzrokov, napak pri vnosu, posodabljanja vsebin, Uprava ne prevzema odgovornosti, kakor tudi ne zaradi nepravilnega delovanja in/ali nedostopnosti vsebine teh spletnih strani. Uprava tudi ne prevzema odgovornosti za kakršnokoli neposredno ali posredno izgubo oziroma škodo, materialno in nematerialno, ki bi nastala zaradi dostopa, uporabe ali odločitve, sprejete na podlagi informacij, objavljenih na teh spletnih straneh, kakor tudi ne zaradi nepravilnega delovanja in/ali nedostopnosti vsebine teh spletnih strani. Uprava si pridržuje pravico do spremembe oziroma umika vsebine, deloma ali v celoti, brez predhodne najave. Vsak poskus nepooblaščenega spreminjanja ali poškodovanja spletnih strani, kot tudi nepooblaščen dostop do informacij mimo spletnih strani in do drugih vsebin, je kaznivo dejanje. Pri uporabi vsebin, objavljenih na portalu, je potrebno navesti vir podatkov (UVHVVR, Agrometeorološki portal Slovenije) in upoštevati avtorske pravice.